sensor_id;sensor_type;location;lat;lon;timestamp;P1;durP1;ratioP1;P2;durP2;ratioP2
49296;SDS011;35163;48.878;18.040;2023-03-13T00:01:34;15.50;;;6.45;;
49296;SDS011;35163;48.878;18.040;2023-03-13T00:04:02;14.05;;;6.43;;
49296;SDS011;35163;48.878;18.040;2023-03-13T00:06:30;14.93;;;6.57;;
49296;SDS011;35163;48.878;18.040;2023-03-13T00:09:03;15.55;;;6.90;;
49296;SDS011;35163;48.878;18.040;2023-03-13T00:11:31;14.82;;;6.75;;
49296;SDS011;35163;48.878;18.040;2023-03-13T00:13:59;13.77;;;6.78;;
49296;SDS011;35163;48.878;18.040;2023-03-13T00:16:27;15.40;;;7.10;;
49296;SDS011;35163;48.878;18.040;2023-03-13T00:18:55;14.65;;;7.30;;
49296;SDS011;35163;48.878;18.040;2023-03-13T00:21:24;13.82;;;6.70;;
49296;SDS011;35163;48.878;18.040;2023-03-13T00:23:52;15.07;;;7.60;;
49296;SDS011;35163;48.878;18.040;2023-03-13T00:26:20;14.30;;;7.28;;
49296;SDS011;35163;48.878;18.040;2023-03-13T00:28:49;17.17;;;7.10;;
49296;SDS011;35163;48.878;18.040;2023-03-13T00:31:23;15.38;;;7.25;;
49296;SDS011;35163;48.878;18.040;2023-03-13T00:33:58;16.33;;;7.63;;
49296;SDS011;35163;48.878;18.040;2023-03-13T00:36:28;15.77;;;7.45;;
49296;SDS011;35163;48.878;18.040;2023-03-13T00:38:56;15.07;;;7.43;;
49296;SDS011;35163;48.878;18.040;2023-03-13T00:41:24;15.10;;;7.30;;
49296;SDS011;35163;48.878;18.040;2023-03-13T00:43:55;15.43;;;7.32;;
49296;SDS011;35163;48.878;18.040;2023-03-13T00:46:23;15.50;;;6.80;;
49296;SDS011;35163;48.878;18.040;2023-03-13T00:48:51;13.70;;;7.18;;
49296;SDS011;35163;48.878;18.040;2023-03-13T00:51:19;13.77;;;7.60;;
49296;SDS011;35163;48.878;18.040;2023-03-13T00:53:47;15.43;;;7.82;;
49296;SDS011;35163;48.878;18.040;2023-03-13T00:56:15;15.00;;;7.15;;
49296;SDS011;35163;48.878;18.040;2023-03-13T00:58:43;13.80;;;7.38;;
49296;SDS011;35163;48.878;18.040;2023-03-13T01:03:52;18.73;;;8.77;;
49296;SDS011;35163;48.878;18.040;2023-03-13T01:06:21;14.63;;;7.57;;
49296;SDS011;35163;48.878;18.040;2023-03-13T01:08:49;15.02;;;7.40;;
49296;SDS011;35163;48.878;18.040;2023-03-13T01:11:18;14.10;;;7.10;;
49296;SDS011;35163;48.878;18.040;2023-03-13T01:13:52;13.98;;;7.47;;
49296;SDS011;35163;48.878;18.040;2023-03-13T01:16:20;14.18;;;7.13;;
49296;SDS011;35163;48.878;18.040;2023-03-13T01:18:54;15.02;;;7.22;;
49296;SDS011;35163;48.878;18.040;2023-03-13T01:21:22;13.52;;;7.82;;
49296;SDS011;35163;48.878;18.040;2023-03-13T01:23:49;17.60;;;7.88;;
49296;SDS011;35163;48.878;18.040;2023-03-13T01:26:17;13.07;;;7.13;;
49296;SDS011;35163;48.878;18.040;2023-03-13T01:28:44;15.20;;;7.72;;
49296;SDS011;35163;48.878;18.040;2023-03-13T01:31:15;13.52;;;7.38;;
49296;SDS011;35163;48.878;18.040;2023-03-13T01:33:47;13.52;;;6.90;;
49296;SDS011;35163;48.878;18.040;2023-03-13T01:36:15;18.63;;;7.55;;
49296;SDS011;35163;48.878;18.040;2023-03-13T01:38:42;13.98;;;6.63;;
49296;SDS011;35163;48.878;18.040;2023-03-13T01:41:10;15.02;;;7.40;;
49296;SDS011;35163;48.878;18.040;2023-03-13T01:43:37;13.05;;;6.80;;
49296;SDS011;35163;48.878;18.040;2023-03-13T01:54:02;13.52;;;7.45;;
49296;SDS011;35163;48.878;18.040;2023-03-13T01:59:18;15.77;;;7.85;;
49296;SDS011;35163;48.878;18.040;2023-03-13T02:01:50;12.93;;;7.20;;
49296;SDS011;35163;48.878;18.040;2023-03-13T02:04:20;14.73;;;6.75;;
49296;SDS011;35163;48.878;18.040;2023-03-13T02:06:49;13.55;;;7.15;;
49296;SDS011;35163;48.878;18.040;2023-03-13T02:09:21;13.70;;;7.47;;
49296;SDS011;35163;48.878;18.040;2023-03-13T02:11:53;13.27;;;6.85;;
49296;SDS011;35163;48.878;18.040;2023-03-13T02:14:27;14.60;;;6.85;;
49296;SDS011;35163;48.878;18.040;2023-03-13T02:16:55;13.32;;;6.78;;
49296;SDS011;35163;48.878;18.040;2023-03-13T02:22:04;13.05;;;7.20;;
49296;SDS011;35163;48.878;18.040;2023-03-13T02:27:38;16.70;;;7.53;;
49296;SDS011;35163;48.878;18.040;2023-03-13T02:30:06;17.20;;;7.53;;
49296;SDS011;35163;48.878;18.040;2023-03-13T02:32:35;18.17;;;7.32;;
49296;SDS011;35163;48.878;18.040;2023-03-13T02:35:07;16.00;;;7.00;;
49296;SDS011;35163;48.878;18.040;2023-03-13T02:37:36;13.02;;;7.15;;
49296;SDS011;35163;48.878;18.040;2023-03-13T02:40:05;11.93;;;6.30;;
49296;SDS011;35163;48.878;18.040;2023-03-13T02:42:38;16.35;;;7.60;;
49296;SDS011;35163;48.878;18.040;2023-03-13T02:45:08;18.13;;;7.47;;
49296;SDS011;35163;48.878;18.040;2023-03-13T02:47:35;14.93;;;7.20;;
49296;SDS011;35163;48.878;18.040;2023-03-13T02:50:02;13.40;;;6.82;;
49296;SDS011;35163;48.878;18.040;2023-03-13T02:52:29;14.68;;;7.22;;
49296;SDS011;35163;48.878;18.040;2023-03-13T02:54:59;18.42;;;7.40;;
49296;SDS011;35163;48.878;18.040;2023-03-13T02:57:30;15.48;;;7.35;;
49296;SDS011;35163;48.878;18.040;2023-03-13T02:59:57;12.82;;;7.25;;
49296;SDS011;35163;48.878;18.040;2023-03-13T03:02:23;16.88;;;7.60;;
49296;SDS011;35163;48.878;18.040;2023-03-13T03:04:50;13.55;;;7.05;;
49296;SDS011;35163;48.878;18.040;2023-03-13T03:07:16;17.20;;;7.97;;
49296;SDS011;35163;48.878;18.040;2023-03-13T03:09:43;13.82;;;7.10;;
49296;SDS011;35163;48.878;18.040;2023-03-13T03:12:10;14.57;;;7.22;;
49296;SDS011;35163;48.878;18.040;2023-03-13T03:14:36;15.60;;;7.63;;
49296;SDS011;35163;48.878;18.040;2023-03-13T03:17:03;11.90;;;6.95;;
49296;SDS011;35163;48.878;18.040;2023-03-13T03:19:30;16.65;;;7.68;;
49296;SDS011;35163;48.878;18.040;2023-03-13T03:21:57;13.32;;;7.47;;
49296;SDS011;35163;48.878;18.040;2023-03-13T03:24:23;15.32;;;7.50;;
49296;SDS011;35163;48.878;18.040;2023-03-13T03:26:50;38.75;;;20.67;;
49296;SDS011;35163;48.878;18.040;2023-03-13T03:29:16;42.25;;;20.70;;
49296;SDS011;35163;48.878;18.040;2023-03-13T03:31:43;40.85;;;20.23;;
49296;SDS011;35163;48.878;18.040;2023-03-13T03:34:10;22.77;;;12.73;;
49296;SDS011;35163;48.878;18.040;2023-03-13T03:36:36;26.98;;;13.15;;
49296;SDS011;35163;48.878;18.040;2023-03-13T03:39:03;25.55;;;12.55;;
49296;SDS011;35163;48.878;18.040;2023-03-13T03:41:30;16.55;;;9.48;;
49296;SDS011;35163;48.878;18.040;2023-03-13T03:43:57;15.95;;;7.88;;
49296;SDS011;35163;48.878;18.040;2023-03-13T03:46:23;13.73;;;7.25;;
49296;SDS011;35163;48.878;18.040;2023-03-13T03:48:50;15.25;;;7.75;;
49296;SDS011;35163;48.878;18.040;2023-03-13T03:51:17;20.17;;;8.27;;
49296;SDS011;35163;48.878;18.040;2023-03-13T03:53:43;15.57;;;8.07;;
49296;SDS011;35163;48.878;18.040;2023-03-13T03:56:10;15.93;;;8.43;;
49296;SDS011;35163;48.878;18.040;2023-03-13T03:58:36;15.23;;;8.13;;
49296;SDS011;35163;48.878;18.040;2023-03-13T04:01:03;14.55;;;8.32;;
49296;SDS011;35163;48.878;18.040;2023-03-13T04:03:30;14.30;;;7.68;;
49296;SDS011;35163;48.878;18.040;2023-03-13T04:05:57;13.85;;;7.90;;
49296;SDS011;35163;48.878;18.040;2023-03-13T04:08:24;13.98;;;7.53;;
49296;SDS011;35163;48.878;18.040;2023-03-13T04:10:50;15.23;;;6.68;;
49296;SDS011;35163;48.878;18.040;2023-03-13T04:13:17;13.00;;;7.07;;
49296;SDS011;35163;48.878;18.040;2023-03-13T04:15:46;14.35;;;7.88;;
49296;SDS011;35163;48.878;18.040;2023-03-13T04:18:14;16.45;;;7.75;;
49296;SDS011;35163;48.878;18.040;2023-03-13T04:20:41;15.27;;;7.97;;
49296;SDS011;35163;48.878;18.040;2023-03-13T04:23:08;18.88;;;7.50;;
49296;SDS011;35163;48.878;18.040;2023-03-13T04:25:35;14.60;;;8.30;;
49296;SDS011;35163;48.878;18.040;2023-03-13T04:28:02;15.63;;;8.30;;
49296;SDS011;35163;48.878;18.040;2023-03-13T04:30:28;15.20;;;8.02;;
49296;SDS011;35163;48.878;18.040;2023-03-13T04:32:55;16.45;;;7.80;;
49296;SDS011;35163;48.878;18.040;2023-03-13T04:35:21;16.00;;;8.45;;
49296;SDS011;35163;48.878;18.040;2023-03-13T04:37:48;15.43;;;7.60;;
49296;SDS011;35163;48.878;18.040;2023-03-13T04:40:15;13.68;;;7.22;;
49296;SDS011;35163;48.878;18.040;2023-03-13T04:42:41;16.75;;;7.45;;
49296;SDS011;35163;48.878;18.040;2023-03-13T04:45:11;13.57;;;7.57;;
49296;SDS011;35163;48.878;18.040;2023-03-13T04:47:38;12.88;;;6.93;;
49296;SDS011;35163;48.878;18.040;2023-03-13T04:50:04;15.50;;;7.18;;
49296;SDS011;35163;48.878;18.040;2023-03-13T04:52:31;12.10;;;6.07;;
49296;SDS011;35163;48.878;18.040;2023-03-13T04:54:58;14.25;;;7.75;;
49296;SDS011;35163;48.878;18.040;2023-03-13T04:57:24;15.77;;;7.20;;
49296;SDS011;35163;48.878;18.040;2023-03-13T04:59:51;18.33;;;8.55;;
49296;SDS011;35163;48.878;18.040;2023-03-13T05:02:18;15.90;;;7.07;;
49296;SDS011;35163;48.878;18.040;2023-03-13T05:04:44;14.57;;;7.40;;
49296;SDS011;35163;48.878;18.040;2023-03-13T05:07:11;13.25;;;7.20;;
49296;SDS011;35163;48.878;18.040;2023-03-13T05:09:37;14.95;;;7.78;;
49296;SDS011;35163;48.878;18.040;2023-03-13T05:12:04;14.77;;;7.53;;
49296;SDS011;35163;48.878;18.040;2023-03-13T05:14:31;19.35;;;8.10;;
49296;SDS011;35163;48.878;18.040;2023-03-13T05:16:57;15.40;;;7.72;;
49296;SDS011;35163;48.878;18.040;2023-03-13T05:19:24;15.38;;;8.40;;
49296;SDS011;35163;48.878;18.040;2023-03-13T05:21:53;14.35;;;7.43;;
49296;SDS011;35163;48.878;18.040;2023-03-13T05:24:19;15.23;;;8.02;;
49296;SDS011;35163;48.878;18.040;2023-03-13T05:26:46;17.50;;;8.90;;
49296;SDS011;35163;48.878;18.040;2023-03-13T05:29:12;17.35;;;7.93;;
49296;SDS011;35163;48.878;18.040;2023-03-13T05:31:39;12.77;;;7.68;;
49296;SDS011;35163;48.878;18.040;2023-03-13T05:34:05;14.52;;;7.35;;
49296;SDS011;35163;48.878;18.040;2023-03-13T05:36:32;15.27;;;7.78;;
49296;SDS011;35163;48.878;18.040;2023-03-13T05:38:58;13.20;;;7.32;;
49296;SDS011;35163;48.878;18.040;2023-03-13T05:41:25;16.55;;;8.48;;
49296;SDS011;35163;48.878;18.040;2023-03-13T05:43:52;14.60;;;8.30;;
49296;SDS011;35163;48.878;18.040;2023-03-13T05:46:18;14.55;;;8.10;;
49296;SDS011;35163;48.878;18.040;2023-03-13T05:48:45;14.75;;;8.13;;
49296;SDS011;35163;48.878;18.040;2023-03-13T05:51:12;16.88;;;7.65;;
49296;SDS011;35163;48.878;18.040;2023-03-13T05:53:38;17.33;;;7.75;;
49296;SDS011;35163;48.878;18.040;2023-03-13T05:56:05;15.98;;;7.50;;
49296;SDS011;35163;48.878;18.040;2023-03-13T05:58:32;15.40;;;8.45;;
49296;SDS011;35163;48.878;18.040;2023-03-13T06:00:58;19.20;;;8.25;;
49296;SDS011;35163;48.878;18.040;2023-03-13T06:03:25;13.25;;;7.53;;
49296;SDS011;35163;48.878;18.040;2023-03-13T06:05:56;15.15;;;7.75;;
49296;SDS011;35163;48.878;18.040;2023-03-13T06:08:24;14.70;;;7.97;;
49296;SDS011;35163;48.878;18.040;2023-03-13T06:10:51;16.55;;;7.88;;
49296;SDS011;35163;48.878;18.040;2023-03-13T06:13:17;18.38;;;9.05;;
49296;SDS011;35163;48.878;18.040;2023-03-13T06:15:52;14.10;;;8.27;;
49296;SDS011;35163;48.878;18.040;2023-03-13T06:18:20;15.27;;;7.88;;
49296;SDS011;35163;48.878;18.040;2023-03-13T06:20:47;13.90;;;7.82;;
49296;SDS011;35163;48.878;18.040;2023-03-13T06:23:15;15.05;;;7.32;;
49296;SDS011;35163;48.878;18.040;2023-03-13T06:25:45;12.70;;;7.25;;
49296;SDS011;35163;48.878;18.040;2023-03-13T06:28:13;15.13;;;8.13;;
49296;SDS011;35163;48.878;18.040;2023-03-13T06:30:41;14.13;;;7.75;;
49296;SDS011;35163;48.878;18.040;2023-03-13T06:33:07;14.50;;;7.85;;
49296;SDS011;35163;48.878;18.040;2023-03-13T06:35:34;15.93;;;8.30;;
49296;SDS011;35163;48.878;18.040;2023-03-13T06:38:20;15.40;;;8.13;;
49296;SDS011;35163;48.878;18.040;2023-03-13T06:40:46;23.52;;;8.93;;
49296;SDS011;35163;48.878;18.040;2023-03-13T06:43:13;14.68;;;7.70;;
49296;SDS011;35163;48.878;18.040;2023-03-13T06:45:39;16.30;;;8.02;;
49296;SDS011;35163;48.878;18.040;2023-03-13T06:48:06;17.15;;;7.82;;
49296;SDS011;35163;48.878;18.040;2023-03-13T06:50:36;16.88;;;8.57;;
49296;SDS011;35163;48.878;18.040;2023-03-13T06:53:03;14.27;;;7.72;;
49296;SDS011;35163;48.878;18.040;2023-03-13T06:55:30;13.43;;;7.63;;
49296;SDS011;35163;48.878;18.040;2023-03-13T06:57:57;13.68;;;7.65;;
49296;SDS011;35163;48.878;18.040;2023-03-13T07:00:24;15.07;;;8.52;;
49296;SDS011;35163;48.878;18.040;2023-03-13T07:02:50;15.07;;;7.93;;
49296;SDS011;35163;48.878;18.040;2023-03-13T07:05:17;18.25;;;8.95;;
49296;SDS011;35163;48.878;18.040;2023-03-13T07:07:46;15.00;;;7.90;;
49296;SDS011;35163;48.878;18.040;2023-03-13T07:10:13;17.63;;;8.57;;
49296;SDS011;35163;48.878;18.040;2023-03-13T07:12:39;16.92;;;8.13;;
49296;SDS011;35163;48.878;18.040;2023-03-13T07:15:06;15.48;;;8.30;;
49296;SDS011;35163;48.878;18.040;2023-03-13T07:17:33;25.33;;;13.68;;
49296;SDS011;35163;48.878;18.040;2023-03-13T07:20:00;16.50;;;9.02;;
49296;SDS011;35163;48.878;18.040;2023-03-13T07:22:28;15.10;;;7.65;;
49296;SDS011;35163;48.878;18.040;2023-03-13T07:24:54;17.50;;;7.72;;
49296;SDS011;35163;48.878;18.040;2023-03-13T07:27:21;14.38;;;8.23;;
49296;SDS011;35163;48.878;18.040;2023-03-13T07:29:48;14.48;;;7.78;;
49296;SDS011;35163;48.878;18.040;2023-03-13T07:32:15;13.10;;;7.57;;
49296;SDS011;35163;48.878;18.040;2023-03-13T07:34:41;14.65;;;7.10;;
49296;SDS011;35163;48.878;18.040;2023-03-13T07:37:13;14.07;;;7.82;;
49296;SDS011;35163;48.878;18.040;2023-03-13T07:39:41;16.38;;;8.05;;
49296;SDS011;35163;48.878;18.040;2023-03-13T07:42:09;14.35;;;7.43;;
49296;SDS011;35163;48.878;18.040;2023-03-13T07:44:37;13.75;;;7.22;;
49296;SDS011;35163;48.878;18.040;2023-03-13T07:47:03;17.27;;;7.63;;
49296;SDS011;35163;48.878;18.040;2023-03-13T07:49:30;14.55;;;7.35;;
49296;SDS011;35163;48.878;18.040;2023-03-13T07:51:56;14.32;;;7.32;;
49296;SDS011;35163;48.878;18.040;2023-03-13T07:54:23;15.57;;;7.00;;
49296;SDS011;35163;48.878;18.040;2023-03-13T07:56:50;15.15;;;7.45;;
49296;SDS011;35163;48.878;18.040;2023-03-13T07:59:16;16.05;;;7.38;;
49296;SDS011;35163;48.878;18.040;2023-03-13T08:01:43;14.57;;;6.72;;
49296;SDS011;35163;48.878;18.040;2023-03-13T08:04:11;11.85;;;6.85;;
49296;SDS011;35163;48.878;18.040;2023-03-13T08:06:39;16.08;;;7.78;;
49296;SDS011;35163;48.878;18.040;2023-03-13T08:09:07;12.57;;;7.15;;
49296;SDS011;35163;48.878;18.040;2023-03-13T08:11:36;12.88;;;6.40;;
49296;SDS011;35163;48.878;18.040;2023-03-13T08:14:05;13.30;;;6.75;;
49296;SDS011;35163;48.878;18.040;2023-03-13T08:16:32;21.40;;;7.20;;
49296;SDS011;35163;48.878;18.040;2023-03-13T08:19:02;13.15;;;7.25;;
49296;SDS011;35163;48.878;18.040;2023-03-13T08:21:33;12.02;;;7.03;;
49296;SDS011;35163;48.878;18.040;2023-03-13T08:24:02;13.75;;;7.35;;
49296;SDS011;35163;48.878;18.040;2023-03-13T08:26:32;15.20;;;7.45;;
49296;SDS011;35163;48.878;18.040;2023-03-13T08:29:02;14.75;;;7.28;;
49296;SDS011;35163;48.878;18.040;2023-03-13T08:31:32;29.58;;;15.65;;
49296;SDS011;35163;48.878;18.040;2023-03-13T08:34:11;12.70;;;7.22;;
49296;SDS011;35163;48.878;18.040;2023-03-13T08:36:39;15.05;;;6.63;;
49296;SDS011;35163;48.878;18.040;2023-03-13T08:39:08;14.25;;;6.75;;
49296;SDS011;35163;48.878;18.040;2023-03-13T08:41:37;15.25;;;6.88;;
49296;SDS011;35163;48.878;18.040;2023-03-13T08:44:06;13.40;;;7.25;;
49296;SDS011;35163;48.878;18.040;2023-03-13T08:46:35;11.15;;;6.25;;
49296;SDS011;35163;48.878;18.040;2023-03-13T08:49:02;17.92;;;6.97;;
49296;SDS011;35163;48.878;18.040;2023-03-13T08:51:30;14.52;;;7.13;;
49296;SDS011;35163;48.878;18.040;2023-03-13T08:53:57;14.77;;;6.55;;
49296;SDS011;35163;48.878;18.040;2023-03-13T08:56:25;12.75;;;6.57;;
49296;SDS011;35163;48.878;18.040;2023-03-13T08:58:54;12.52;;;7.03;;
49296;SDS011;35163;48.878;18.040;2023-03-13T09:01:23;12.55;;;6.75;;
49296;SDS011;35163;48.878;18.040;2023-03-13T09:03:51;13.55;;;6.72;;
49296;SDS011;35163;48.878;18.040;2023-03-13T09:06:18;11.93;;;6.75;;
49296;SDS011;35163;48.878;18.040;2023-03-13T09:08:45;12.32;;;6.28;;
49296;SDS011;35163;48.878;18.040;2023-03-13T09:11:14;13.77;;;7.40;;
49296;SDS011;35163;48.878;18.040;2023-03-13T09:13:45;15.32;;;6.70;;
49296;SDS011;35163;48.878;18.040;2023-03-13T09:16:14;12.77;;;6.53;;
49296;SDS011;35163;48.878;18.040;2023-03-13T09:18:43;13.25;;;6.60;;
49296;SDS011;35163;48.878;18.040;2023-03-13T09:21:14;18.95;;;7.95;;
49296;SDS011;35163;48.878;18.040;2023-03-13T09:23:42;12.50;;;6.80;;
49296;SDS011;35163;48.878;18.040;2023-03-13T09:26:09;20.67;;;11.65;;
49296;SDS011;35163;48.878;18.040;2023-03-13T09:28:36;18.77;;;7.78;;
49296;SDS011;35163;48.878;18.040;2023-03-13T09:31:06;13.98;;;6.55;;
49296;SDS011;35163;48.878;18.040;2023-03-13T09:33:53;15.57;;;6.57;;
49296;SDS011;35163;48.878;18.040;2023-03-13T09:36:20;14.73;;;6.93;;
49296;SDS011;35163;48.878;18.040;2023-03-13T09:38:52;13.32;;;6.40;;
49296;SDS011;35163;48.878;18.040;2023-03-13T09:44:04;16.50;;;6.63;;
49296;SDS011;35163;48.878;18.040;2023-03-13T09:47:05;15.18;;;6.90;;
49296;SDS011;35163;48.878;18.040;2023-03-13T09:49:49;10.75;;;6.10;;
49296;SDS011;35163;48.878;18.040;2023-03-13T09:52:37;12.38;;;5.68;;
49296;SDS011;35163;48.878;18.040;2023-03-13T09:55:40;12.15;;;5.72;;
49296;SDS011;35163;48.878;18.040;2023-03-13T09:58:03;12.45;;;5.95;;
49296;SDS011;35163;48.878;18.040;2023-03-13T10:00:35;11.02;;;5.30;;
49296;SDS011;35163;48.878;18.040;2023-03-13T10:05:38;9.68;;;5.20;;
49296;SDS011;35163;48.878;18.040;2023-03-13T10:08:15;13.20;;;5.40;;
49296;SDS011;35163;48.878;18.040;2023-03-13T10:13:41;13.35;;;6.70;;
49296;SDS011;35163;48.878;18.040;2023-03-13T10:16:21;11.38;;;5.95;;
49296;SDS011;35163;48.878;18.040;2023-03-13T10:18:54;12.32;;;5.43;;
49296;SDS011;35163;48.878;18.040;2023-03-13T10:21:23;9.65;;;4.90;;
49296;SDS011;35163;48.878;18.040;2023-03-13T10:24:02;10.15;;;5.50;;
49296;SDS011;35163;48.878;18.040;2023-03-13T10:26:38;11.95;;;5.18;;
49296;SDS011;35163;48.878;18.040;2023-03-13T10:29:15;10.82;;;5.57;;
49296;SDS011;35163;48.878;18.040;2023-03-13T10:34:24;9.65;;;5.38;;
49296;SDS011;35163;48.878;18.040;2023-03-13T10:36:59;11.57;;;5.45;;
49296;SDS011;35163;48.878;18.040;2023-03-13T10:39:27;11.05;;;5.38;;
49296;SDS011;35163;48.878;18.040;2023-03-13T10:41:58;12.60;;;5.35;;
49296;SDS011;35163;48.878;18.040;2023-03-13T10:44:36;9.10;;;4.20;;
49296;SDS011;35163;48.878;18.040;2023-03-13T10:47:03;10.70;;;5.20;;
49296;SDS011;35163;48.878;18.040;2023-03-13T10:49:31;13.10;;;4.60;;
49296;SDS011;35163;48.878;18.040;2023-03-13T10:52:00;13.48;;;5.38;;
49296;SDS011;35163;48.878;18.040;2023-03-13T10:54:32;12.00;;;5.22;;
49296;SDS011;35163;48.878;18.040;2023-03-13T10:59:52;9.65;;;4.07;;
49296;SDS011;35163;48.878;18.040;2023-03-13T11:04:52;14.05;;;4.45;;
49296;SDS011;35163;48.878;18.040;2023-03-13T11:07:21;13.00;;;5.03;;
49296;SDS011;35163;48.878;18.040;2023-03-13T11:09:58;10.32;;;5.15;;
49296;SDS011;35163;48.878;18.040;2023-03-13T11:12:45;11.80;;;4.53;;
49296;SDS011;35163;48.878;18.040;2023-03-13T11:15:14;9.85;;;4.10;;
49296;SDS011;35163;48.878;18.040;2023-03-13T11:17:46;8.88;;;4.45;;
49296;SDS011;35163;48.878;18.040;2023-03-13T11:20:26;12.68;;;4.03;;
49296;SDS011;35163;48.878;18.040;2023-03-13T11:28:23;14.00;;;5.47;;
49296;SDS011;35163;48.878;18.040;2023-03-13T11:33:47;13.73;;;4.97;;
49296;SDS011;35163;48.878;18.040;2023-03-13T11:56:16;10.88;;;5.55;;
49296;SDS011;35163;48.878;18.040;2023-03-13T11:58:51;10.75;;;5.13;;
49296;SDS011;35163;48.878;18.040;2023-03-13T12:01:48;9.88;;;5.03;;
49296;SDS011;35163;48.878;18.040;2023-03-13T12:04:33;9.13;;;4.60;;
49296;SDS011;35163;48.878;18.040;2023-03-13T12:17:41;9.25;;;4.75;;
49296;SDS011;35163;48.878;18.040;2023-03-13T12:20:41;9.45;;;5.40;;
49296;SDS011;35163;48.878;18.040;2023-03-13T12:23:19;11.15;;;5.32;;
49296;SDS011;35163;48.878;18.040;2023-03-13T12:31:09;9.93;;;4.75;;
49296;SDS011;35163;48.878;18.040;2023-03-13T12:33:44;17.33;;;8.18;;
49296;SDS011;35163;48.878;18.040;2023-03-13T12:36:20;12.48;;;6.03;;
49296;SDS011;35163;48.878;18.040;2023-03-13T12:38:55;10.98;;;5.28;;
49296;SDS011;35163;48.878;18.040;2023-03-13T12:41:42;12.30;;;5.80;;
49296;SDS011;35163;48.878;18.040;2023-03-13T12:44:18;9.75;;;4.90;;
49296;SDS011;35163;48.878;18.040;2023-03-13T12:46:46;11.00;;;5.18;;
49296;SDS011;35163;48.878;18.040;2023-03-13T12:57:20;12.02;;;5.35;;
49296;SDS011;35163;48.878;18.040;2023-03-13T13:00:06;11.52;;;5.70;;
49296;SDS011;35163;48.878;18.040;2023-03-13T13:02:41;12.77;;;5.88;;
49296;SDS011;35163;48.878;18.040;2023-03-13T13:05:16;17.27;;;6.20;;
49296;SDS011;35163;48.878;18.040;2023-03-13T13:07:54;10.48;;;5.70;;
49296;SDS011;35163;48.878;18.040;2023-03-13T13:10:24;10.65;;;5.43;;
49296;SDS011;35163;48.878;18.040;2023-03-13T13:16:03;9.95;;;5.43;;
49296;SDS011;35163;48.878;18.040;2023-03-13T13:18:31;12.65;;;6.18;;
49296;SDS011;35163;48.878;18.040;2023-03-13T13:23:32;15.40;;;5.72;;
49296;SDS011;35163;48.878;18.040;2023-03-13T13:36:56;11.00;;;6.47;;
49296;SDS011;35163;48.878;18.040;2023-03-13T13:41:59;11.88;;;5.50;;
49296;SDS011;35163;48.878;18.040;2023-03-13T13:44:27;11.50;;;5.57;;
49296;SDS011;35163;48.878;18.040;2023-03-13T13:46:55;11.73;;;5.22;;
49296;SDS011;35163;48.878;18.040;2023-03-13T13:49:30;11.95;;;5.97;;
49296;SDS011;35163;48.878;18.040;2023-03-13T13:54:31;9.90;;;4.78;;
49296;SDS011;35163;48.878;18.040;2023-03-13T13:57:14;13.02;;;5.75;;
49296;SDS011;35163;48.878;18.040;2023-03-13T13:59:47;21.95;;;5.88;;
49296;SDS011;35163;48.878;18.040;2023-03-13T14:02:20;11.07;;;5.90;;
49296;SDS011;35163;48.878;18.040;2023-03-13T14:07:28;11.70;;;5.55;;
49296;SDS011;35163;48.878;18.040;2023-03-13T14:12:31;11.45;;;5.53;;
49296;SDS011;35163;48.878;18.040;2023-03-13T14:15:06;13.00;;;5.28;;
49296;SDS011;35163;48.878;18.040;2023-03-13T14:17:39;10.15;;;5.70;;
49296;SDS011;35163;48.878;18.040;2023-03-13T14:22:59;10.80;;;5.13;;
49296;SDS011;35163;48.878;18.040;2023-03-13T14:25:46;10.82;;;5.13;;
49296;SDS011;35163;48.878;18.040;2023-03-13T14:28:15;13.00;;;5.22;;
49296;SDS011;35163;48.878;18.040;2023-03-13T14:30:44;11.82;;;5.28;;
49296;SDS011;35163;48.878;18.040;2023-03-13T14:33:12;10.80;;;5.65;;
49296;SDS011;35163;48.878;18.040;2023-03-13T14:35:39;9.77;;;5.30;;
49296;SDS011;35163;48.878;18.040;2023-03-13T14:38:14;12.93;;;6.30;;
49296;SDS011;35163;48.878;18.040;2023-03-13T14:40:42;14.65;;;6.65;;
49296;SDS011;35163;48.878;18.040;2023-03-13T14:43:17;15.70;;;5.72;;
49296;SDS011;35163;48.878;18.040;2023-03-13T14:45:47;11.13;;;5.47;;
49296;SDS011;35163;48.878;18.040;2023-03-13T14:48:31;15.20;;;5.10;;
49296;SDS011;35163;48.878;18.040;2023-03-13T14:51:41;10.45;;;5.40;;
49296;SDS011;35163;48.878;18.040;2023-03-13T14:53:53;12.40;;;4.93;;
49296;SDS011;35163;48.878;18.040;2023-03-13T14:56:28;12.27;;;5.78;;
49296;SDS011;35163;48.878;18.040;2023-03-13T15:01:32;12.35;;;5.70;;
49296;SDS011;35163;48.878;18.040;2023-03-13T15:03:59;15.35;;;7.70;;
49296;SDS011;35163;48.878;18.040;2023-03-13T15:06:26;15.32;;;7.82;;
49296;SDS011;35163;48.878;18.040;2023-03-13T15:11:53;11.88;;;6.10;;
49296;SDS011;35163;48.878;18.040;2023-03-13T15:14:56;12.32;;;6.45;;
49296;SDS011;35163;48.878;18.040;2023-03-13T15:19:57;14.15;;;6.38;;
49296;SDS011;35163;48.878;18.040;2023-03-13T15:24:58;12.38;;;6.57;;
49296;SDS011;35163;48.878;18.040;2023-03-13T15:27:35;12.57;;;5.70;;
49296;SDS011;35163;48.878;18.040;2023-03-13T15:30:02;16.40;;;6.82;;
49296;SDS011;35163;48.878;18.040;2023-03-13T15:32:36;12.43;;;6.10;;
49296;SDS011;35163;48.878;18.040;2023-03-13T15:35:10;42.40;;;20.88;;
49296;SDS011;35163;48.878;18.040;2023-03-13T15:37:49;63.00;;;27.05;;
49296;SDS011;35163;48.878;18.040;2023-03-13T15:40:16;38.25;;;19.20;;
49296;SDS011;35163;48.878;18.040;2023-03-13T15:42:43;41.30;;;22.17;;
49296;SDS011;35163;48.878;18.040;2023-03-13T15:45:10;23.27;;;11.13;;
49296;SDS011;35163;48.878;18.040;2023-03-13T15:47:38;19.08;;;9.82;;
49296;SDS011;35163;48.878;18.040;2023-03-13T15:50:10;24.67;;;12.20;;
49296;SDS011;35163;48.878;18.040;2023-03-13T15:52:40;17.38;;;8.25;;
49296;SDS011;35163;48.878;18.040;2023-03-13T15:55:08;12.38;;;6.15;;
49296;SDS011;35163;48.878;18.040;2023-03-13T15:57:36;12.90;;;6.30;;
49296;SDS011;35163;48.878;18.040;2023-03-13T16:00:19;12.38;;;6.22;;
49296;SDS011;35163;48.878;18.040;2023-03-13T16:02:48;15.05;;;6.53;;
49296;SDS011;35163;48.878;18.040;2023-03-13T16:05:16;13.52;;;6.13;;
49296;SDS011;35163;48.878;18.040;2023-03-13T16:07:43;20.65;;;6.80;;
49296;SDS011;35163;48.878;18.040;2023-03-13T16:10:19;12.55;;;6.40;;
49296;SDS011;35163;48.878;18.040;2023-03-13T16:12:51;11.65;;;6.00;;
49296;SDS011;35163;48.878;18.040;2023-03-13T16:15:18;13.80;;;6.35;;
49296;SDS011;35163;48.878;18.040;2023-03-13T16:17:45;12.05;;;5.65;;
49296;SDS011;35163;48.878;18.040;2023-03-13T16:20:19;12.32;;;5.95;;
49296;SDS011;35163;48.878;18.040;2023-03-13T16:22:47;12.02;;;5.82;;
49296;SDS011;35163;48.878;18.040;2023-03-13T16:25:16;12.27;;;5.28;;
49296;SDS011;35163;48.878;18.040;2023-03-13T16:27:43;17.05;;;8.60;;
49296;SDS011;35163;48.878;18.040;2023-03-13T16:30:23;18.30;;;8.85;;
49296;SDS011;35163;48.878;18.040;2023-03-13T16:32:52;16.35;;;6.80;;
49296;SDS011;35163;48.878;18.040;2023-03-13T16:35:22;13.35;;;6.57;;
49296;SDS011;35163;48.878;18.040;2023-03-13T16:37:49;11.80;;;5.80;;
49296;SDS011;35163;48.878;18.040;2023-03-13T16:40:17;12.32;;;5.32;;
49296;SDS011;35163;48.878;18.040;2023-03-13T16:42:46;15.35;;;5.88;;
49296;SDS011;35163;48.878;18.040;2023-03-13T16:45:13;14.93;;;5.78;;